Notice: Undefined index: language in /storage/ssd5/510/10272510/public_html/vam1/vam/index.php on line 25
Brand Clickair VA

www.000webhost.com
 METAR AND TAF INFORMATION
METAR FOR LCPH
ADDS - METARS form results

(0104 UTC 08 May 2021)
Data provider http://aviationweather.gov/metar/data/
 
METAR text: LCPH 080100Z AUTO 08004KT 030V120 9999 NCD 18/07 Q1014
Conditions at: LCPH (PAPHOS/BAF INTL , CY) observed 0100 UTC 08 May 2021
Temperature: 18.0°C (64°F)
Dewpoint: 7.0°C (45°F) [RH = 49%]
Pressure (altimeter): 29.94 inches Hg (1014.0 mb)
Winds: from the E (80 degrees) at 5 MPH (4 knots; 2.1 m/s)
Visibility: 6 or more miles (10+ km)
Ceiling: at least 12,000 feet AGL
Clouds: sky clear below 12,000 feet AGL
Weather: no significant weather observed at this time

METAR text: LCPH 080030Z AUTO 04006KT 9999 NCD 19/08 Q1014
Conditions at: LCPH (PAPHOS/BAF INTL , CY) observed 0030 UTC 08 May 2021
Temperature: 19.0°C (66°F)
Dewpoint: 8.0°C (46°F) [RH = 49%]
Pressure (altimeter): 29.94 inches Hg (1014.0 mb)
Winds: from the NE (40 degrees) at 7 MPH (6 knots; 3.1 m/s)
Visibility: 6 or more miles (10+ km)
Ceiling: at least 12,000 feet AGL
Clouds: sky clear below 12,000 feet AGL
Weather: no significant weather observed at this time

Forecast for: LCPH (PAPHOS/BAF INTL , CY)
Text: TAF LCPH 072330Z 0800/0824 06005KT CAVOK
Forecast period: 0000 to 0500 UTC 08 May 2021
Forecast type: FROM: standard forecast or significant change
Winds: from the ENE (60 degrees) at 6 MPH (5 knots; 2.6 m/s)
Visibility: 6 or more miles (10+ km)
Ceiling: unknown
Clouds: missing
Weather: NSW  (no significant weather)
Text: BECMG 0805/0808 14012KT
Forecast period: 0500 to 1000 UTC 08 May 2021
Forecast type: BECOMING: Conditions expected to become as follows by 0800 UTC 08 May 2021
Winds: from the SE (140 degrees) at 14 MPH (12 knots; 6.2 m/s)
Visibility: 6 or more miles (10+ km)
Ceiling: unknown
Clouds: missing
Weather: NSW  (no significant weather)
Text: BECMG 0810/0813 27004KT
Forecast period: 1000 UTC 08 May 2021 to 0000 UTC 09 May 2021
Forecast type: BECOMING: Conditions expected to become as follows by 1300 UTC 08 May 2021
Winds: from the W (270 degrees) at 5 MPH (4 knots; 2.1 m/s)
Visibility: 6 or more miles (10+ km)
Ceiling: unknown
Clouds: missing
Weather: NSW  (no significant weather)

 AIRPORT MAP

 RUNWAY INFORMATION
Runway 11 Runway length 8858 ft Runway width 148 ft
Runway elevation 41 ft Runway displaced threshold 0 ft Runway heading 110
Runway 29 Runway length 8858 ft Runway width 148 ft
Runway elevation 30 ft Runway displaced threshold 0 ft Runway heading 290

 AIRPORT FREQUENCIES
Type APP Name APP Frequency 120.8 MHZ
Type TWR Name TWR Frequency 119.9 MHZ

 AIRPORT NEAR NAVIGATION AIDS
Type TACAN Name Pafos Frequency 113200 KHZ
Type VOR-DME Name Pafos Frequency 117900 KHZ
Type NDB Name Pafos Frequency 328 KHZ



Powered by Virtual Airlines Manager [v2.6.2]